Time;durP1;ratioP1;P1;durP2;ratioP2;P2;SDS_P1;SDS_P2;PMS_P1;PMS_P2;Temp;Humidity;BMP_temperature;BMP_pressure;BME280_temperature;BME280_humidity;BME280_pressure;Samples;Min_cycle;Max_cycle;Signal;HPM_P1;HPM_P2
2021/05/04 00:00:07;;;;;;;8.17;5.17;;;;;;;;;;5067749;28;20193;-69
2021/05/04 00:02:32;;;;;;;9.87;5.23;;;;;;;;;;5061648;28;20557;-69
2021/05/04 00:04:57;;;;;;;8.70;5.47;;;;;;;;;;5062166;28;20195;-70
2021/05/04 00:07:22;;;;;;;6.07;4.33;;;;;;;;;;5056753;28;20185;-69
2021/05/04 00:09:47;;;;;;;6.60;5.43;;;;;;;;;;5065626;28;20205;-69
2021/05/04 00:12:13;;;;;;;12.13;5.00;;;;;;;;;;5063948;28;20232;-70
2021/05/04 00:14:39;;;;;;;6.87;5.20;;;;;;;;;;5062647;28;20196;-70
2021/05/04 00:17:04;;;;;;;8.23;4.87;;;;;;;;;;5067357;28;20180;-70
2021/05/04 00:19:29;;;;;;;9.10;4.90;;;;;;;;;;5070629;28;20260;-70
2021/05/04 00:21:55;;;;;;;6.47;5.77;;;;;;;;;;5067679;28;20208;-70
2021/05/04 00:24:20;;;;;;;5.90;5.30;;;;;;;;;;5063248;28;20180;-70
2021/05/04 00:26:45;;;;;;;7.07;5.63;;;;;;;;;;5059575;28;20260;-70
2021/05/04 00:29:10;;;;;;;8.70;5.30;;;;;;;;;;5056578;28;20178;-71
2021/05/04 00:31:37;;;;;;;9.10;5.10;;;;;;;;;;5060037;28;20766;-71
2021/05/04 00:34:02;;;;;;;7.03;4.80;;;;;;;;;;5054599;28;20186;-71
2021/05/04 00:36:27;;;;;;;6.30;5.17;;;;;;;;;;5059059;28;20581;-70
2021/05/04 00:38:52;;;;;;;10.80;5.80;;;;;;;;;;5062744;28;20659;-71
2021/05/04 00:41:18;;;;;;;6.93;5.00;;;;;;;;;;5060358;28;20690;-71
2021/05/04 00:43:43;;;;;;;8.63;5.40;;;;;;;;;;5062183;28;20201;-71
2021/05/04 00:46:08;;;;;;;7.67;4.83;;;;;;;;;;5055048;28;20166;-72
2021/05/04 00:48:33;;;;;;;6.53;5.50;;;;;;;;;;5060463;28;20666;-70
2021/05/04 00:51:00;;;;;;;7.47;5.13;;;;;;;;;;5056778;28;20244;-70
2021/05/04 00:53:25;;;;;;;7.27;4.83;;;;;;;;;;5061411;28;20184;-70
2021/05/04 00:55:51;;;;;;;9.27;5.30;;;;;;;;;;5057105;28;20250;-70
2021/05/04 00:58:16;;;;;;;8.20;5.80;;;;;;;;;;5060191;28;20212;-71
2021/05/04 01:00:41;;;;;;;8.27;5.23;;;;;;;;;;5057428;28;20208;-70
2021/05/04 01:03:08;;;;;;;6.60;5.63;;;;;;;;;;5056475;28;20242;-70
2021/05/04 01:05:34;;;;;;;9.60;5.40;;;;;;;;;;5051947;28;20196;-71
2021/05/04 01:07:59;;;;;;;9.13;5.77;;;;;;;;;;5064417;28;20302;-70
2021/05/04 01:10:24;;;;;;;10.33;5.70;;;;;;;;;;5059344;28;20184;-71
2021/05/04 01:12:49;;;;;;;8.47;5.80;;;;;;;;;;5055521;28;20193;-71
2021/05/04 01:15:14;;;;;;;12.87;5.93;;;;;;;;;;5052418;28;20557;-71
2021/05/04 01:17:40;;;;;;;6.37;5.67;;;;;;;;;;5057135;28;20215;-70
2021/05/04 01:20:05;;;;;;;9.20;5.50;;;;;;;;;;5052871;28;20196;-70
2021/05/04 01:22:30;;;;;;;8.13;6.43;;;;;;;;;;5055399;28;20208;-72
2021/05/04 01:24:56;;;;;;;8.03;6.30;;;;;;;;;;5056774;28;20200;-71
2021/05/04 01:27:21;;;;;;;8.63;6.43;;;;;;;;;;5059123;28;20250;-72
2021/05/04 01:29:46;;;;;;;7.37;6.50;;;;;;;;;;5062229;28;20177;-70
2021/05/04 01:32:13;;;;;;;6.47;5.50;;;;;;;;;;5059207;28;20554;-70
2021/05/04 01:34:39;;;;;;;8.67;6.40;;;;;;;;;;5061456;28;20177;-70
2021/05/04 01:37:04;;;;;;;7.40;5.77;;;;;;;;;;5055750;28;20196;-71
2021/05/04 01:39:40;;;;;;;8.27;6.00;;;;;;;;;;5058004;28;20227;-70
2021/05/04 01:42:05;;;;;;;6.93;5.20;;;;;;;;;;5059578;28;20216;-69
2021/05/04 01:44:30;;;;;;;7.13;6.00;;;;;;;;;;5058407;28;20178;-70
2021/05/04 01:46:55;;;;;;;7.13;5.33;;;;;;;;;;5058009;28;20177;-69
2021/05/04 01:49:21;;;;;;;6.87;6.03;;;;;;;;;;5059297;28;20181;-71
2021/05/04 01:51:46;;;;;;;6.83;5.60;;;;;;;;;;5062740;28;20201;-69
2021/05/04 01:54:11;;;;;;;12.37;6.87;;;;;;;;;;5056255;28;20197;-70
2021/05/04 01:56:36;;;;;;;9.33;5.83;;;;;;;;;;5061538;28;20173;-69
2021/05/04 01:59:02;;;;;;;6.63;6.03;;;;;;;;;;5053599;28;20200;-71
2021/05/04 02:01:28;;;;;;;7.00;5.20;;;;;;;;;;5060882;28;20686;-70
2021/05/04 02:03:53;;;;;;;9.87;5.50;;;;;;;;;;5056627;28;20177;-70
2021/05/04 02:06:18;;;;;;;6.00;4.57;;;;;;;;;;5062143;28;20197;-69
2021/05/04 02:08:43;;;;;;;5.80;4.80;;;;;;;;;;5057122;28;20177;-70
2021/05/04 02:11:10;;;;;;;7.43;4.87;;;;;;;;;;5058824;28;20213;-69
2021/05/04 02:13:35;;;;;;;8.20;5.00;;;;;;;;;;5061968;28;20176;-68
2021/05/04 02:16:00;;;;;;;9.53;5.07;;;;;;;;;;5053367;28;20255;-70
2021/05/04 02:18:26;;;;;;;6.10;4.63;;;;;;;;;;5061501;28;20185;-69
2021/05/04 02:20:51;;;;;;;6.57;4.90;;;;;;;;;;5059760;28;20203;-70
2021/05/04 02:23:16;;;;;;;10.40;4.70;;;;;;;;;;5053686;28;20173;-70
2021/05/04 02:25:42;;;;;;;6.17;4.47;;;;;;;;;;5059088;28;20185;-70
2021/05/04 02:28:07;;;;;;;5.07;4.67;;;;;;;;;;5056971;28;20180;-70
2021/05/04 02:30:33;;;;;;;6.50;4.77;;;;;;;;;;5063984;28;20203;-70
2021/05/04 02:32:58;;;;;;;5.23;4.50;;;;;;;;;;5055152;28;20642;-69
2021/05/04 02:35:23;;;;;;;5.97;4.90;;;;;;;;;;5065223;28;20177;-69
2021/05/04 02:37:49;;;;;;;8.93;4.77;;;;;;;;;;5054004;28;20193;-70
2021/05/04 02:40:14;;;;;;;5.43;3.80;;;;;;;;;;5061773;28;20197;-70
2021/05/04 02:42:39;;;;;;;5.17;4.43;;;;;;;;;;5057250;28;20220;-69
2021/05/04 02:45:05;;;;;;;6.30;4.97;;;;;;;;;;5065739;28;20181;-70
2021/05/04 02:47:30;;;;;;;7.07;4.53;;;;;;;;;;5062955;28;20169;-71
2021/05/04 02:49:55;;;;;;;5.47;4.00;;;;;;;;;;5064340;28;20562;-70
2021/05/04 02:52:20;;;;;;;5.07;4.57;;;;;;;;;;5062866;28;20200;-70
2021/05/04 02:54:46;;;;;;;8.77;4.10;;;;;;;;;;5060592;28;20169;-71
2021/05/04 02:57:11;;;;;;;4.83;4.10;;;;;;;;;;5060775;28;20197;-70
2021/05/04 02:59:36;;;;;;;4.70;4.13;;;;;;;;;;5064042;28;20193;-69
2021/05/04 03:02:02;;;;;;;4.67;4.27;;;;;;;;;;5062471;28;20655;-69
2021/05/04 03:04:27;;;;;;;4.40;4.00;;;;;;;;;;5059565;28;20268;-69
2021/05/04 03:06:52;;;;;;;3.90;3.50;;;;;;;;;;5063332;28;20177;-69
2021/05/04 03:09:17;;;;;;;4.10;3.80;;;;;;;;;;5059673;28;20173;-70
2021/05/04 03:11:42;;;;;;;5.37;3.87;;;;;;;;;;5064601;28;20209;-70
2021/05/04 03:14:07;;;;;;;4.83;3.83;;;;;;;;;;5061831;28;20277;-70
2021/05/04 03:16:33;;;;;;;5.27;3.50;;;;;;;;;;5062145;28;20181;-70
2021/05/04 03:18:58;;;;;;;9.73;4.07;;;;;;;;;;5057514;28;20239;-68
2021/05/04 03:21:24;;;;;;;5.07;3.73;;;;;;;;;;5070204;28;20243;-70
2021/05/04 03:23:49;;;;;;;3.87;3.40;;;;;;;;;;5061526;28;20182;-70
2021/05/04 03:26:14;;;;;;;3.93;2.80;;;;;;;;;;5069322;28;20181;-70
2021/05/04 03:28:40;;;;;;;5.53;3.10;;;;;;;;;;5064505;28;20191;-69
2021/05/04 03:31:05;;;;;;;3.57;3.27;;;;;;;;;;5066678;28;20558;-70
2021/05/04 03:33:30;;;;;;;4.63;4.00;;;;;;;;;;5062336;28;20268;-70
2021/05/04 03:35:55;;;;;;;8.23;3.60;;;;;;;;;;5064599;28;20196;-70
2021/05/04 03:38:20;;;;;;;7.67;3.60;;;;;;;;;;5056741;28;20195;-70
2021/05/04 03:40:46;;;;;;;3.70;3.23;;;;;;;;;;5068685;28;20576;-70
2021/05/04 03:43:12;;;;;;;6.20;3.70;;;;;;;;;;5067677;28;20596;-71
2021/05/04 03:45:37;;;;;;;3.93;3.00;;;;;;;;;;5066968;28;20184;-70
2021/05/04 03:48:02;;;;;;;3.80;3.07;;;;;;;;;;5062849;28;20673;-70
2021/05/04 03:50:28;;;;;;;3.80;3.30;;;;;;;;;;5063099;28;20187;-70
2021/05/04 03:52:54;;;;;;;6.40;4.50;;;;;;;;;;5067310;28;20232;-70
2021/05/04 03:55:19;;;;;;;4.17;3.77;;;;;;;;;;5064574;28;20173;-69
2021/05/04 03:57:44;;;;;;;4.90;3.57;;;;;;;;;;5063087;28;20639;-69
2021/05/04 04:00:11;;;;;;;4.17;3.73;;;;;;;;;;5066544;28;20204;-71
2021/05/04 04:02:37;;;;;;;5.20;3.90;;;;;;;;;;5062010;28;20694;-71
2021/05/04 04:05:02;;;;;;;4.20;3.10;;;;;;;;;;5067952;28;20177;-70
2021/05/04 04:07:28;;;;;;;6.23;4.03;;;;;;;;;;5067720;28;20181;-69
2021/05/04 04:09:53;;;;;;;5.90;3.90;;;;;;;;;;5063677;28;20184;-70
2021/05/04 04:12:18;;;;;;;4.93;4.00;;;;;;;;;;5068455;28;20493;-70
2021/05/04 04:14:44;;;;;;;4.23;3.83;;;;;;;;;;5061747;28;20177;-70
2021/05/04 04:17:09;;;;;;;13.70;6.17;;;;;;;;;;5063130;28;20184;-69
2021/05/04 04:19:34;;;;;;;6.70;4.50;;;;;;;;;;5059238;28;20181;-70
2021/05/04 04:21:59;;;;;;;4.80;3.80;;;;;;;;;;5070299;28;20243;-71
2021/05/04 04:24:24;;;;;;;4.23;3.30;;;;;;;;;;5063202;28;20194;-70
2021/05/04 04:26:49;;;;;;;9.67;3.63;;;;;;;;;;5060907;28;20169;-70
2021/05/04 04:29:15;;;;;;;3.13;2.83;;;;;;;;;;5056559;28;20618;-69
2021/05/04 04:31:41;;;;;;;5.47;3.00;;;;;;;;;;5058920;28;20277;-70
2021/05/04 04:34:06;;;;;;;4.37;3.43;;;;;;;;;;5057075;28;20651;-71
2021/05/04 04:36:32;;;;;;;3.87;3.50;;;;;;;;;;5063666;28;20204;-70
2021/05/04 04:38:57;;;;;;;3.63;3.20;;;;;;;;;;5067350;28;20185;-71
2021/05/04 04:41:22;;;;;;;3.93;3.40;;;;;;;;;;5067065;28;20201;-71
2021/05/04 04:43:47;;;;;;;5.03;3.87;;;;;;;;;;5070660;28;20177;-71
2021/05/04 04:46:13;;;;;;;7.70;3.40;;;;;;;;;;5063284;28;20643;-70
2021/05/04 04:48:38;;;;;;;6.97;3.27;;;;;;;;;;5071062;28;20187;-70
2021/05/04 04:51:03;;;;;;;4.00;3.60;;;;;;;;;;5066535;28;20244;-71
2021/05/04 04:53:28;;;;;;;4.97;3.40;;;;;;;;;;5069294;28;20173;-69
2021/05/04 04:55:53;;;;;;;10.93;3.77;;;;;;;;;;5071448;28;20262;-70
2021/05/04 04:58:19;;;;;;;5.73;4.50;;;;;;;;;;5073917;28;20193;-70
2021/05/04 05:00:44;;;;;;;8.27;4.00;;;;;;;;;;5061177;28;20200;-71
2021/05/04 05:03:09;;;;;;;5.13;3.50;;;;;;;;;;5059736;28;20177;-70
2021/05/04 05:05:34;;;;;;;4.83;3.20;;;;;;;;;;5066800;28;20189;-71
2021/05/04 05:07:59;;;;;;;8.23;3.57;;;;;;;;;;5061529;28;20652;-70
2021/05/04 05:10:25;;;;;;;9.17;3.13;;;;;;;;;;5059996;28;20302;-70
2021/05/04 05:12:50;;;;;;;9.23;2.87;;;;;;;;;;5063619;28;20284;-70
2021/05/04 05:15:15;;;;;;;5.53;2.53;;;;;;;;;;5062636;28;20189;-70
2021/05/04 05:17:40;;;;;;;7.63;3.10;;;;;;;;;;5064196;28;20552;-71
2021/05/04 05:20:06;;;;;;;10.77;2.80;;;;;;;;;;5055737;28;20204;-71
2021/05/04 05:22:31;;;;;;;9.60;2.67;;;;;;;;;;5065703;28;20263;-71
2021/05/04 05:24:57;;;;;;;8.17;2.27;;;;;;;;;;5059238;28;20737;-70
2021/05/04 05:27:22;;;;;;;5.87;2.17;;;;;;;;;;5064386;28;20192;-71
2021/05/04 05:29:48;;;;;;;4.07;2.33;;;;;;;;;;5053159;28;20243;-70
2021/05/04 05:32:13;;;;;;;8.50;1.87;;;;;;;;;;5058309;28;20197;-70
2021/05/04 05:34:39;;;;;;;6.40;1.90;;;;;;;;;;5065389;28;20176;-70
2021/05/04 05:37:04;;;;;;;6.73;1.70;;;;;;;;;;5063046;28;20194;-71
2021/05/04 05:39:29;;;;;;;8.47;1.50;;;;;;;;;;5062973;28;20272;-71
2021/05/04 05:41:54;;;;;;;4.47;1.57;;;;;;;;;;5050221;28;20206;-70
2021/05/04 05:44:19;;;;;;;12.27;2.03;;;;;;;;;;5051886;28;20200;-69
2021/05/04 05:46:45;;;;;;;5.60;2.20;;;;;;;;;;5056994;28;20548;-71
2021/05/04 05:49:10;;;;;;;4.30;1.27;;;;;;;;;;5059657;28;20191;-70
2021/05/04 05:51:36;;;;;;;1.57;1.10;;;;;;;;;;5060672;28;20200;-71
2021/05/04 05:54:01;;;;;;;3.37;1.20;;;;;;;;;;5063208;28;20655;-72
2021/05/04 05:56:27;;;;;;;7.03;2.10;;;;;;;;;;5068596;28;20188;-70
2021/05/04 05:58:52;;;;;;;4.27;1.60;;;;;;;;;;5065122;28;20327;-71
2021/05/04 06:01:17;;;;;;;6.07;1.50;;;;;;;;;;5062781;28;20216;-70
2021/05/04 06:03:42;;;;;;;7.10;2.23;;;;;;;;;;5052021;28;20196;-71
2021/05/04 06:06:07;;;;;;;4.43;1.73;;;;;;;;;;5064097;28;20193;-70
2021/05/04 06:08:32;;;;;;;7.03;1.70;;;;;;;;;;5053892;28;20222;-70
2021/05/04 06:10:58;;;;;;;4.77;1.90;;;;;;;;;;5055084;28;20264;-71
2021/05/04 06:13:23;;;;;;;9.20;3.30;;;;;;;;;;5059429;28;20172;-71
2021/05/04 06:15:48;;;;;;;8.10;2.33;;;;;;;;;;5062334;28;20205;-70
2021/05/04 06:18:14;;;;;;;4.90;2.53;;;;;;;;;;5053257;28;20173;-70
2021/05/04 06:20:39;;;;;;;10.37;3.00;;;;;;;;;;5057786;28;20240;-70
2021/05/04 06:23:05;;;;;;;7.80;3.20;;;;;;;;;;5052163;28;20639;-70
2021/05/04 06:25:31;;;;;;;9.53;3.63;;;;;;;;;;5069213;28;20176;-71
2021/05/04 06:28:00;;;;;;;12.00;3.27;;;;;;;;;;5066125;28;20557;-70
2021/05/04 06:30:27;;;;;;;7.77;3.93;;;;;;;;;;5064556;28;20264;-70
2021/05/04 06:32:52;;;;;;;9.17;3.20;;;;;;;;;;5063825;28;20205;-70
2021/05/04 06:35:19;;;;;;;12.07;3.37;;;;;;;;;;5054023;28;21091;-70
2021/05/04 06:37:45;;;;;;;15.93;4.77;;;;;;;;;;5061390;28;20188;-69
2021/05/04 06:40:10;;;;;;;13.03;4.07;;;;;;;;;;5057955;28;20331;-69
2021/05/04 06:42:35;;;;;;;10.20;4.40;;;;;;;;;;5054692;28;20291;-69
2021/05/04 06:45:01;;;;;;;14.23;4.33;;;;;;;;;;5057434;28;20181;-69
2021/05/04 06:47:26;;;;;;;17.87;3.83;;;;;;;;;;5060265;28;20207;-69
2021/05/04 06:49:51;;;;;;;14.40;4.23;;;;;;;;;;5058686;28;20291;-69
2021/05/04 06:52:16;;;;;;;13.37;4.13;;;;;;;;;;5058959;28;20204;-70
2021/05/04 06:54:42;;;;;;;11.80;3.40;;;;;;;;;;5064756;28;20270;-69
2021/05/04 06:57:08;;;;;;;15.80;4.27;;;;;;;;;;5060092;28;20259;-70
2021/05/04 06:59:33;;;;;;;13.37;5.70;;;;;;;;;;5066390;28;20188;-69
2021/05/04 07:01:59;;;;;;;16.47;4.17;;;;;;;;;;5061737;28;20212;-70
2021/05/04 07:04:25;;;;;;;15.33;4.07;;;;;;;;;;5067408;28;20176;-70
2021/05/04 07:06:50;;;;;;;18.03;4.33;;;;;;;;;;5061279;28;20264;-69
2021/05/04 07:09:15;;;;;;;16.20;4.43;;;;;;;;;;5062110;28;20651;-70
2021/05/04 07:11:40;;;;;;;11.63;3.97;;;;;;;;;;5064792;28;20231;-70
2021/05/04 07:14:06;;;;;;;14.77;3.93;;;;;;;;;;5065283;28;20176;-70
2021/05/04 07:16:31;;;;;;;17.67;4.90;;;;;;;;;;5065199;28;20278;-70
2021/05/04 07:18:56;;;;;;;20.27;4.40;;;;;;;;;;5073626;28;20188;-70
2021/05/04 07:21:22;;;;;;;16.00;4.27;;;;;;;;;;5058487;28;20239;-70
2021/05/04 07:23:48;;;;;;;12.77;4.70;;;;;;;;;;5061646;28;20169;-69
2021/05/04 07:26:14;;;;;;;16.73;4.50;;;;;;;;;;5078935;28;20233;-69
2021/05/04 07:28:39;;;;;;;14.07;4.07;;;;;;;;;;5068024;28;20251;-70
2021/05/04 07:31:04;;;;;;;15.53;4.00;;;;;;;;;;5059314;28;20289;-69
2021/05/04 07:33:30;;;;;;;16.20;4.37;;;;;;;;;;5058236;28;20178;-70
2021/05/04 07:35:55;;;;;;;15.13;4.50;;;;;;;;;;5056243;28;20174;-70
2021/05/04 07:38:20;;;;;;;13.67;3.80;;;;;;;;;;5062533;28;20181;-69
2021/05/04 07:40:45;;;;;;;16.90;6.03;;;;;;;;;;5066181;28;20573;-70
2021/05/04 07:43:11;;;;;;;14.00;3.53;;;;;;;;;;5061758;28;20173;-70
2021/05/04 07:45:36;;;;;;;10.80;3.47;;;;;;;;;;5059848;28;20592;-69
2021/05/04 07:48:03;;;;;;;17.70;4.07;;;;;;;;;;5059034;28;20173;-70
2021/05/04 07:50:29;;;;;;;12.73;3.97;;;;;;;;;;5069055;28;20180;-69
2021/05/04 07:52:54;;;;;;;18.87;4.53;;;;;;;;;;5069656;28;20314;-70
2021/05/04 07:55:20;;;;;;;9.27;4.20;;;;;;;;;;5063120;28;20272;-71
2021/05/04 07:57:45;;;;;;;12.20;5.00;;;;;;;;;;5069943;28;20203;-70
2021/05/04 08:00:10;;;;;;;15.17;4.07;;;;;;;;;;5069822;28;20177;-69
2021/05/04 08:02:36;;;;;;;17.57;4.27;;;;;;;;;;5060833;28;20201;-70
2021/05/04 08:05:01;;;;;;;11.47;4.13;;;;;;;;;;5061999;28;20586;-70
2021/05/04 08:07:26;;;;;;;9.40;3.20;;;;;;;;;;5068340;28;20302;-70
2021/05/04 08:09:51;;;;;;;11.70;3.60;;;;;;;;;;5063091;28;20204;-70
2021/05/04 08:12:17;;;;;;;12.47;3.97;;;;;;;;;;5057847;28;20209;-70
2021/05/04 08:14:43;;;;;;;12.40;3.70;;;;;;;;;;5066328;28;20230;-69
2021/05/04 08:17:14;;;;;;;10.90;3.43;;;;;;;;;;5071524;28;20330;-70
2021/05/04 08:19:39;;;;;;;8.23;3.67;;;;;;;;;;5069391;28;20181;-70
2021/05/04 08:22:04;;;;;;;10.73;3.47;;;;;;;;;;5062979;28;20209;-69
2021/05/04 08:24:30;;;;;;;14.00;4.13;;;;;;;;;;5068150;28;20753;-71
2021/05/04 08:26:55;;;;;;;17.40;4.43;;;;;;;;;;5076386;28;20207;-70
2021/05/04 08:29:20;;;;;;;11.10;3.13;;;;;;;;;;5060682;28;20581;-70
2021/05/04 08:31:45;;;;;;;15.20;4.17;;;;;;;;;;5060229;28;20576;-69
2021/05/04 08:34:10;;;;;;;17.43;4.30;;;;;;;;;;5062042;28;20205;-70
2021/05/04 08:36:35;;;;;;;10.20;3.27;;;;;;;;;;5064211;28;20296;-71
2021/05/04 08:39:01;;;;;;;13.20;3.50;;;;;;;;;;5058010;28;20182;-70
2021/05/04 08:41:27;;;;;;;16.50;3.20;;;;;;;;;;5066870;28;20244;-69
2021/05/04 08:43:52;;;;;;;9.97;3.87;;;;;;;;;;5065133;28;20303;-71
2021/05/04 08:46:20;;;;;;;12.23;3.57;;;;;;;;;;5068465;28;20192;-70
2021/05/04 08:48:46;;;;;;;13.60;3.43;;;;;;;;;;5069204;28;20169;-71
2021/05/04 08:51:12;;;;;;;8.53;2.70;;;;;;;;;;5061931;28;20665;-70
2021/05/04 08:53:37;;;;;;;9.97;2.20;;;;;;;;;;5065262;28;20604;-71
2021/05/04 08:56:03;;;;;;;11.60;2.57;;;;;;;;;;5057072;28;20209;-70
2021/05/04 08:58:28;;;;;;;13.67;3.10;;;;;;;;;;5063610;28;20212;-72
2021/05/04 09:00:55;;;;;;;12.77;2.73;;;;;;;;;;5068623;28;20229;-71
2021/05/04 09:03:25;;;;;;;14.90;3.13;;;;;;;;;;5072343;28;20561;-71
2021/05/04 09:06:02;;;;;;;14.77;3.93;;;;;;;;;;5069626;28;20183;-71
2021/05/04 09:11:27;;;;;;;7.83;2.77;;;;;;;;;;5061119;28;20694;-71
2021/05/04 09:16:49;;;;;;;15.17;3.10;;;;;;;;;;5063490;28;20187;-72
2021/05/04 09:21:53;;;;;;;11.93;3.20;;;;;;;;;;5068748;28;20222;-71
2021/05/04 09:24:19;;;;;;;17.40;4.30;;;;;;;;;;5068369;28;20260;-70
2021/05/04 09:26:44;;;;;;;13.10;2.73;;;;;;;;;;5063122;28;20227;-70
2021/05/04 09:29:10;;;;;;;8.17;3.17;;;;;;;;;;5063621;28;20261;-71
2021/05/04 09:31:37;;;;;;;7.53;2.70;;;;;;;;;;5067612;28;20271;-70
2021/05/04 09:34:09;;;;;;;9.43;3.03;;;;;;;;;;5060277;28;20796;-70
2021/05/04 09:36:37;;;;;;;6.03;1.73;;;;;;;;;;5058751;28;20674;-70
2021/05/04 09:39:03;;;;;;;8.07;2.17;;;;;;;;;;5054975;28;20332;-70
2021/05/04 09:41:28;;;;;;;11.67;2.20;;;;;;;;;;5063222;28;20725;-70
2021/05/04 09:43:54;;;;;;;5.87;1.40;;;;;;;;;;5067535;28;20270;-71
2021/05/04 09:46:19;;;;;;;3.90;1.50;;;;;;;;;;5071555;28;20551;-71
2021/05/04 09:48:44;;;;;;;4.23;1.10;;;;;;;;;;5061693;28;20262;-71
2021/05/04 09:51:17;;;;;;;3.23;1.33;;;;;;;;;;5069314;28;20200;-72
2021/05/04 09:53:46;;;;;;;4.63;1.00;;;;;;;;;;5063855;28;20201;-72
2021/05/04 09:56:12;;;;;;;4.33;1.90;;;;;;;;;;5060541;28;20185;-71
2021/05/04 09:58:39;;;;;;;3.83;1.17;;;;;;;;;;5062820;28;20200;-71
2021/05/04 10:01:09;;;;;;;5.40;1.07;;;;;;;;;;5055897;28;20555;-70
2021/05/04 10:03:35;;;;;;;6.83;1.70;;;;;;;;;;5061671;28;20169;-71
2021/05/04 10:06:00;;;;;;;3.50;0.90;;;;;;;;;;5060002;28;20717;-70
2021/05/04 10:08:27;;;;;;;5.10;0.93;;;;;;;;;;5060930;28;20673;-71
2021/05/04 10:10:53;;;;;;;4.30;1.97;;;;;;;;;;5062215;28;20275;-70
2021/05/04 10:13:18;;;;;;;2.97;1.47;;;;;;;;;;5071299;28;20621;-71
2021/05/04 10:15:44;;;;;;;6.23;1.00;;;;;;;;;;5063293;28;20173;-71
2021/05/04 10:18:10;;;;;;;4.13;1.10;;;;;;;;;;5069209;28;20176;-71
2021/05/04 10:20:35;;;;;;;2.87;1.00;;;;;;;;;;5063134;28;20201;-70
2021/05/04 10:23:01;;;;;;;4.60;1.07;;;;;;;;;;5060850;28;20565;-70
2021/05/04 10:25:26;;;;;;;4.07;1.10;;;;;;;;;;5051059;28;20180;-71
2021/05/04 10:27:53;;;;;;;6.60;1.97;;;;;;;;;;5051909;28;20185;-70
2021/05/04 10:30:19;;;;;;;3.87;1.60;;;;;;;;;;5066929;28;20180;-70
2021/05/04 10:32:51;;;;;;;4.87;1.30;;;;;;;;;;5053812;28;20576;-70
2021/05/04 10:35:29;;;;;;;3.83;1.57;;;;;;;;;;5057920;28;20302;-71
2021/05/04 10:37:55;;;;;;;4.80;1.07;;;;;;;;;;5060586;28;20529;-70
2021/05/04 10:40:22;;;;;;;4.47;1.20;;;;;;;;;;5095526;28;20172;-70
2021/05/04 10:42:47;;;;;;;4.80;1.50;;;;;;;;;;5068009;28;20190;-71
2021/05/04 10:45:12;;;;;;;8.50;1.93;;;;;;;;;;5054480;28;21755;-71
2021/05/04 10:47:44;;;;;;;3.77;1.30;;;;;;;;;;5054558;28;20310;-70
2021/05/04 10:50:16;;;;;;;4.57;0.80;;;;;;;;;;5060669;28;20182;-70
2021/05/04 10:52:48;;;;;;;1.33;1.00;;;;;;;;;;5053926;28;20206;-70
2021/05/04 10:55:13;;;;;;;8.50;1.70;;;;;;;;;;5052776;28;20674;-69
2021/05/04 10:57:57;;;;;;;5.13;2.00;;;;;;;;;;5063645;28;20177;-70
2021/05/04 11:00:41;;;;;;;8.90;2.23;;;;;;;;;;5066766;28;20186;-70
2021/05/04 11:03:25;;;;;;;3.23;1.37;;;;;;;;;;5057650;28;20200;-70
2021/05/04 11:05:50;;;;;;;5.43;1.23;;;;;;;;;;5057415;28;20173;-70
2021/05/04 11:08:15;;;;;;;6.83;1.83;;;;;;;;;;5067202;28;20257;-72
2021/05/04 11:10:40;;;;;;;8.43;1.90;;;;;;;;;;5058661;28;20776;-69
2021/05/04 11:13:05;;;;;;;5.30;1.20;;;;;;;;;;5061292;28;20224;-70
2021/05/04 11:15:31;;;;;;;4.37;0.80;;;;;;;;;;5062900;28;20208;-70
2021/05/04 11:17:57;;;;;;;3.93;1.20;;;;;;;;;;5065806;28;20179;-70
2021/05/04 11:20:32;;;;;;;3.70;1.03;;;;;;;;;;5064535;28;20189;-70
2021/05/04 11:22:57;;;;;;;4.33;1.17;;;;;;;;;;5064286;28;20312;-70
2021/05/04 11:25:32;;;;;;;3.17;1.30;;;;;;;;;;5064771;28;20311;-69
2021/05/04 11:27:58;;;;;;;4.57;1.00;;;;;;;;;;5065059;28;20242;-70
2021/05/04 11:30:30;;;;;;;5.13;1.30;;;;;;;;;;5060305;28;20639;-70
2021/05/04 11:32:55;;;;;;;5.97;1.30;;;;;;;;;;5060328;28;20208;-71
2021/05/04 11:35:35;;;;;;;1.97;1.03;;;;;;;;;;5063250;28;20246;-70
2021/05/04 11:38:00;;;;;;;4.03;1.40;;;;;;;;;;5066412;28;20193;-69
2021/05/04 11:40:26;;;;;;;9.73;1.73;;;;;;;;;;5066085;28;20177;-70
2021/05/04 11:43:00;;;;;;;3.90;0.90;;;;;;;;;;5058269;28;20201;-70
2021/05/04 11:45:29;;;;;;;7.47;1.40;;;;;;;;;;5052701;28;20185;-70
2021/05/04 11:48:15;;;;;;;7.10;1.30;;;;;;;;;;5062854;28;20208;-70
2021/05/04 11:50:45;;;;;;;6.53;1.17;;;;;;;;;;5062442;28;20228;-70
2021/05/04 11:53:11;;;;;;;5.47;1.10;;;;;;;;;;5055166;28;20232;-70
2021/05/04 11:55:37;;;;;;;5.67;0.80;;;;;;;;;;5066625;28;20543;-69
2021/05/04 11:58:02;;;;;;;6.93;1.00;;;;;;;;;;5057232;28;20688;-72
2021/05/04 12:00:29;;;;;;;2.57;1.30;;;;;;;;;;5055654;28;20276;-69
2021/05/04 12:02:54;;;;;;;1.60;0.70;;;;;;;;;;5057953;28;20214;-69
2021/05/04 12:05:29;;;;;;;4.97;0.83;;;;;;;;;;5057103;28;20222;-70
2021/05/04 12:07:55;;;;;;;2.53;1.10;;;;;;;;;;5059929;28;20529;-69
2021/05/04 12:10:39;;;;;;;3.53;1.10;;;;;;;;;;5062877;28;20192;-70
2021/05/04 12:13:06;;;;;;;4.63;2.67;;;;;;;;;;5065195;28;20251;-68
2021/05/04 12:15:33;;;;;;;5.93;1.30;;;;;;;;;;5060437;28;20203;-70
2021/05/04 12:18:09;;;;;;;2.53;1.10;;;;;;;;;;5061293;28;20662;-69
2021/05/04 12:20:39;;;;;;;5.67;1.10;;;;;;;;;;5052000;28;20682;-70
2021/05/04 12:23:06;;;;;;;3.27;1.00;;;;;;;;;;5053620;28;20209;-70
2021/05/04 12:25:47;;;;;;;3.47;1.10;;;;;;;;;;5064641;28;20669;-70
2021/05/04 12:28:14;;;;;;;2.23;1.10;;;;;;;;;;5063437;28;20600;-70
2021/05/04 12:30:39;;;;;;;4.30;1.17;;;;;;;;;;5063238;28;20528;-70
2021/05/04 12:33:04;;;;;;;3.07;1.00;;;;;;;;;;5062581;28;20200;-70
2021/05/04 12:35:32;;;;;;;9.20;1.67;;;;;;;;;;5061324;28;20177;-70
2021/05/04 12:38:27;;;;;;;7.77;1.77;;;;;;;;;;5059951;28;20204;-68
2021/05/04 12:40:53;;;;;;;4.70;1.40;;;;;;;;;;5054774;28;20281;-69
2021/05/04 12:43:23;;;;;;;4.97;1.50;;;;;;;;;;5063289;28;20284;-71
2021/05/04 12:46:00;;;;;;;4.87;1.20;;;;;;;;;;5061972;28;20176;-71
2021/05/04 12:48:25;;;;;;;4.47;1.40;;;;;;;;;;5058779;28;20658;-70
2021/05/04 12:51:01;;;;;;;5.03;1.27;;;;;;;;;;5053983;28;20180;-71
2021/05/04 12:53:37;;;;;;;3.27;1.53;;;;;;;;;;5060591;28;20182;-70
2021/05/04 12:56:18;;;;;;;4.10;1.10;;;;;;;;;;5058991;28;20185;-70
2021/05/04 12:58:54;;;;;;;7.27;1.70;;;;;;;;;;5062453;28;20208;-70
2021/05/04 13:01:29;;;;;;;5.97;1.30;;;;;;;;;;5058000;28;20316;-68
2021/05/04 13:03:55;;;;;;;4.93;1.30;;;;;;;;;;5060182;28;20173;-69
2021/05/04 13:06:24;;;;;;;4.57;1.50;;;;;;;;;;5061090;28;20226;-69
2021/05/04 13:12:03;;;;;;;1.80;0.97;;;;;;;;;;5060052;28;20205;-70
2021/05/04 13:17:41;;;;;;;4.80;1.70;;;;;;;;;;5057849;28;20184;-70
2021/05/04 13:28:35;;;;;;;3.73;1.10;;;;;;;;;;5060738;28;20239;-70
2021/05/04 13:31:00;;;;;;;3.13;1.20;;;;;;;;;;5062013;28;20610;-70
2021/05/04 13:33:26;;;;;;;2.57;1.10;;;;;;;;;;5059152;28;20203;-69
2021/05/04 13:36:03;;;;;;;4.87;1.37;;;;;;;;;;5065220;28;20180;-70
2021/05/04 13:49:05;;;;;;;3.03;1.10;;;;;;;;;;5056800;28;20188;-69
2021/05/04 13:51:30;;;;;;;3.07;1.00;;;;;;;;;;5060777;28;20201;-71
2021/05/04 13:53:55;;;;;;;4.23;1.20;;;;;;;;;;5062036;28;20626;-70
2021/05/04 13:56:20;;;;;;;3.73;1.50;;;;;;;;;;5054481;28;20624;-70
2021/05/04 13:58:45;;;;;;;3.77;1.10;;;;;;;;;;5056964;28;20181;-70
2021/05/04 14:03:46;;;;;;;3.23;1.20;;;;;;;;;;5054643;28;20673;-69
2021/05/04 14:27:50;;;;;;;2.17;1.23;;;;;;;;;;5065601;28;20208;-73
2021/05/04 14:30:16;;;;;;;3.83;1.70;;;;;;;;;;5052527;28;20673;-71
2021/05/04 14:32:41;;;;;;;3.03;1.40;;;;;;;;;;5058180;28;20205;-72
2021/05/04 14:35:11;;;;;;;2.83;1.73;;;;;;;;;;5056275;28;20207;-70
2021/05/04 14:37:59;;;;;;;4.77;2.07;;;;;;;;;;5059030;28;20648;-71
2021/05/04 14:40:58;;;;;;;6.93;2.33;;;;;;;;;;5055658;28;20177;-70
2021/05/04 15:01:47;;;;;;;7.20;2.80;;;;;;;;;;5053428;28;20323;-71
2021/05/04 15:04:16;;;;;;;6.83;2.50;;;;;;;;;;5058739;28;20181;-70
2021/05/04 15:06:41;;;;;;;4.83;2.63;;;;;;;;;;5056937;28;20180;-71
2021/05/04 15:09:11;;;;;;;6.47;3.40;;;;;;;;;;5062231;28;20182;-69
2021/05/04 15:11:39;;;;;;;4.30;2.73;;;;;;;;;;5052984;28;20197;-70
2021/05/04 15:14:10;;;;;;;5.73;2.80;;;;;;;;;;5060485;28;20245;-70
2021/05/04 15:16:48;;;;;;;5.97;2.87;;;;;;;;;;5056640;28;20189;-69
2021/05/04 15:22:00;;;;;;;6.20;2.57;;;;;;;;;;5060253;28;20238;-69
2021/05/04 15:24:25;;;;;;;6.00;2.73;;;;;;;;;;5055441;28;20556;-70
2021/05/04 15:26:51;;;;;;;5.70;2.93;;;;;;;;;;5058958;28;20180;-71
2021/05/04 15:29:16;;;;;;;3.87;2.00;;;;;;;;;;5061960;28;20181;-70
2021/05/04 15:31:48;;;;;;;7.43;2.93;;;;;;;;;;5061425;28;20200;-70
2021/05/04 15:34:13;;;;;;;3.80;1.93;;;;;;;;;;5064839;28;20185;-70
2021/05/04 15:36:38;;;;;;;3.80;2.07;;;;;;;;;;5063249;28;20208;-70
2021/05/04 15:39:08;;;;;;;3.53;1.77;;;;;;;;;;5063911;28;20242;-71
2021/05/04 15:41:33;;;;;;;4.03;2.00;;;;;;;;;;5061847;28;20209;-70
2021/05/04 15:43:59;;;;;;;3.00;1.43;;;;;;;;;;5061703;28;20181;-70
2021/05/04 15:46:45;;;;;;;3.43;1.60;;;;;;;;;;5061946;28;20180;-70
2021/05/04 16:07:25;;;;;;;4.20;2.47;;;;;;;;;;5062609;28;20188;-71
2021/05/04 16:09:50;;;;;;;2.77;2.20;;;;;;;;;;5059758;28;20184;-70
2021/05/04 16:12:15;;;;;;;2.13;2.03;;;;;;;;;;5062921;28;20201;-70
2021/05/04 16:14:40;;;;;;;4.27;2.60;;;;;;;;;;5066042;28;20181;-70